Time,TemperatureF,DewpointF,PressureIn,WindDirection,WindDirectionDegrees,WindSpeedMPH,WindSpeedGustMPH,Humidity,HourlyPrecipIn,Conditions,Clouds,dailyrainin,SoftwareType,DateUTC
2013-06-21 00:01:00,44.3,41.3,30.07,SW,234,0.0,2.0,89,0.00,,,0.60,VWS V14.01,2013-06-21 06:01:00,
2013-06-21 00:06:00,44.3,41.3,30.07,SW,234,1.0,3.0,89,0.00,,,0.00,VWS V14.01,2013-06-21 06:06:00,
2013-06-21 00:11:00,44.0,41.0,30.07,SW,234,3.0,3.0,89,0.00,,,0.00,VWS V14.01,2013-06-21 06:11:00,
2013-06-21 00:16:00,43.6,40.6,30.07,SW,234,3.0,4.0,89,0.00,,,0.00,VWS V14.01,2013-06-21 06:16:00,
2013-06-21 00:21:00,43.4,40.4,30.07,SW,234,0.0,4.0,89,0.00,,,0.00,VWS V14.01,2013-06-21 06:21:00,
2013-06-21 00:26:00,43.4,40.4,30.07,SW,234,0.0,4.0,89,0.00,,,0.00,VWS V14.01,2013-06-21 06:26:00,
2013-06-21 00:31:00,43.5,40.5,30.07,SW,234,0.0,4.0,89,0.00,,,0.00,VWS V14.01,2013-06-21 06:31:00,
2013-06-21 00:36:00,43.3,40.3,30.07,SW,234,1.0,4.0,89,0.00,,,0.00,VWS V14.01,2013-06-21 06:36:00,
2013-06-21 00:41:00,43.3,40.3,30.07,SW,234,3.0,4.0,89,0.00,,,0.00,VWS V14.01,2013-06-21 06:41:00,
2013-06-21 00:46:00,43.4,40.1,30.08,SW,234,1.0,4.0,88,0.00,,,0.00,VWS V14.01,2013-06-21 06:46:00,
2013-06-21 00:51:00,43.4,40.1,30.08,SW,234,0.0,4.0,88,0.00,,,0.00,VWS V14.01,2013-06-21 06:51:00,
2013-06-21 00:56:00,43.3,40.0,30.08,SW,234,0.0,4.0,88,0.00,,,0.00,VWS V14.01,2013-06-21 06:56:00,
2013-06-21 01:01:00,43.2,39.9,30.08,SW,234,0.0,4.0,88,0.00,,,0.00,VWS V14.01,2013-06-21 07:01:00,
2013-06-21 01:06:00,43.0,40.0,30.08,SW,234,0.0,0.0,89,0.00,,,0.00,VWS V14.01,2013-06-21 07:06:00,
2013-06-21 01:11:00,42.8,39.8,30.08,SW,234,0.0,0.0,89,0.00,,,0.00,VWS V14.01,2013-06-21 07:11:00,
2013-06-21 01:16:00,42.6,39.3,30.07,SW,234,0.0,0.0,88,0.00,,,0.00,VWS V14.01,2013-06-21 07:16:00,
2013-06-21 01:21:00,42.4,39.4,30.07,SW,234,0.0,0.0,89,0.00,,,0.00,VWS V14.01,2013-06-21 07:21:00,
2013-06-21 01:26:00,42.4,39.4,30.07,SW,234,0.0,0.0,89,0.00,,,0.00,VWS V14.01,2013-06-21 07:26:00,
2013-06-21 01:31:00,42.4,39.4,30.07,SW,234,0.0,2.0,89,0.00,,,0.00,VWS V14.01,2013-06-21 07:31:00,
2013-06-21 01:36:00,42.4,39.4,30.07,SW,234,0.0,0.0,89,0.00,,,0.00,VWS V14.01,2013-06-21 07:36:00,
2013-06-21 01:41:00,42.4,39.4,30.07,SW,234,0.0,0.0,89,0.00,,,0.00,VWS V14.01,2013-06-21 07:41:00,
2013-06-21 01:46:00,42.4,39.4,30.07,SW,234,0.0,0.0,89,0.00,,,0.00,VWS V14.01,2013-06-21 07:46:00,
2013-06-21 01:51:00,42.3,39.3,30.07,SW,234,2.0,4.0,89,0.00,,,0.00,VWS V14.01,2013-06-21 07:51:00,
2013-06-21 01:56:00,42.3,39.6,30.07,SW,234,2.0,4.0,90,0.00,,,0.00,VWS V14.01,2013-06-21 07:56:00,
2013-06-21 02:01:00,42.3,39.6,30.07,SW,234,0.0,4.0,90,0.00,,,0.00,VWS V14.01,2013-06-21 08:01:00,
2013-06-21 02:06:00,42.4,39.7,30.07,SW,234,0.0,2.0,90,0.00,,,0.00,VWS V14.01,2013-06-21 08:06:00,
2013-06-21 02:11:00,42.4,39.7,30.07,SW,234,0.0,3.0,90,0.00,,,0.00,VWS V14.01,2013-06-21 08:11:00,
2013-06-21 02:16:00,42.3,39.6,30.06,SW,234,0.0,3.0,90,0.00,,,0.00,VWS V14.01,2013-06-21 08:16:00,
2013-06-21 02:21:00,42.2,39.5,30.06,SW,234,0.0,3.0,90,0.00,,,0.00,VWS V14.01,2013-06-21 08:21:00,
2013-06-21 02:26:00,42.2,39.5,30.06,SW,234,0.0,3.0,90,0.00,,,0.00,VWS V14.01,2013-06-21 08:26:00,
2013-06-21 02:31:00,41.9,39.2,30.06,SW,234,1.0,3.0,90,0.00,,,0.00,VWS V14.01,2013-06-21 08:31:00,
2013-06-21 02:36:00,41.6,38.9,30.06,SW,234,0.0,3.0,90,0.00,,,0.00,VWS V14.01,2013-06-21 08:36:00,
2013-06-21 02:41:00,41.5,38.8,30.07,SW,234,0.0,3.0,90,0.00,,,0.00,VWS V14.01,2013-06-21 08:41:00,
2013-06-21 02:46:00,41.1,38.4,30.07,SW,234,0.0,3.0,90,0.00,,,0.00,VWS V14.01,2013-06-21 08:46:00,
2013-06-21 02:51:00,41.0,38.3,30.07,SW,234,1.0,4.0,90,0.00,,,0.00,VWS V14.01,2013-06-21 08:51:00,
2013-06-21 02:56:00,41.0,38.3,30.07,SW,234,0.0,4.0,90,0.00,,,0.00,VWS V14.01,2013-06-21 08:56:00,
2013-06-21 03:01:00,41.2,38.5,30.07,SW,234,0.0,4.0,90,0.00,,,0.00,VWS V14.01,2013-06-21 09:01:00,
2013-06-21 03:06:00,41.3,38.6,30.07,SW,234,0.0,0.0,90,0.00,,,0.00,VWS V14.01,2013-06-21 09:06:00,
2013-06-21 03:11:00,41.5,38.8,30.07,SW,234,0.0,1.0,90,0.00,,,0.00,VWS V14.01,2013-06-21 09:11:00,
2013-06-21 03:16:00,41.6,38.9,30.07,SW,234,3.0,3.0,90,0.00,,,0.00,VWS V14.01,2013-06-21 09:16:00,
2013-06-21 03:21:00,41.7,39.0,30.07,SW,234,1.0,4.0,90,0.00,,,0.00,VWS V14.01,2013-06-21 09:21:00,
2013-06-21 03:26:00,41.6,38.9,30.07,SW,234,2.0,4.0,90,0.00,,,0.00,VWS V14.01,2013-06-21 09:26:00,
2013-06-21 03:31:00,41.7,39.0,30.07,WSW,241,4.0,7.0,90,0.00,,,0.00,VWS V14.01,2013-06-21 09:31:00,
2013-06-21 03:36:00,42.5,39.8,30.07,West,261,6.0,9.0,90,0.00,,,0.00,VWS V14.01,2013-06-21 09:36:00,
2013-06-21 03:41:00,42.8,39.8,30.07,West,261,3.0,9.0,89,0.00,,,0.00,VWS V14.01,2013-06-21 09:41:00,
2013-06-21 03:46:00,42.7,39.7,30.07,West,263,4.0,9.0,89,0.00,,,0.00,VWS V14.01,2013-06-21 09:46:00,
2013-06-21 03:51:00,42.7,39.7,30.07,West,273,8.0,9.0,89,0.00,,,0.00,VWS V14.01,2013-06-21 09:51:00,
2013-06-21 03:56:00,42.8,39.8,30.07,West,272,3.0,9.0,89,0.00,,,0.00,VWS V14.01,2013-06-21 09:56:00,
2013-06-21 04:01:00,42.7,40.0,30.07,West,272,5.0,9.0,90,0.00,,,0.00,VWS V14.01,2013-06-21 10:01:00,
2013-06-21 04:06:00,42.7,40.0,30.07,West,271,5.0,7.0,90,0.00,,,0.00,VWS V14.01,2013-06-21 10:06:00,
2013-06-21 04:11:00,42.8,39.8,30.07,SW,236,4.0,7.0,89,0.00,,,0.00,VWS V14.01,2013-06-21 10:11:00,
2013-06-21 04:16:00,43.1,40.1,30.07,SW,236,5.0,7.0,89,0.00,,,0.00,VWS V14.01,2013-06-21 10:16:00,
2013-06-21 04:21:00,43.8,40.2,30.07,SW,236,3.0,7.0,87,0.00,,,0.00,VWS V14.01,2013-06-21 10:21:00,
2013-06-21 04:26:00,43.3,40.0,30.07,WNW,286,5.0,8.0,88,0.00,,,0.00,VWS V14.01,2013-06-21 10:26:00,
2013-06-21 04:31:00,43.2,41.0,30.07,West,269,5.0,8.0,92,0.00,,,0.00,VWS V14.01,2013-06-21 10:31:00,
2013-06-21 04:36:00,43.6,39.7,30.07,West,263,5.0,8.0,86,0.00,,,0.00,VWS V14.01,2013-06-21 10:36:00,
2013-06-21 04:41:00,43.9,39.7,30.07,WSW,256,5.0,8.0,85,0.00,,,0.00,VWS V14.01,2013-06-21 10:41:00,
2013-06-21 04:46:00,44.0,39.8,30.08,WSW,257,5.0,8.0,85,0.00,,,0.00,VWS V14.01,2013-06-21 10:46:00,
2013-06-21 04:51:00,44.0,39.8,30.08,WSW,257,4.0,8.0,85,0.00,,,0.00,VWS V14.01,2013-06-21 10:51:00,
2013-06-21 04:56:00,43.9,40.0,30.08,WSW,257,1.0,8.0,86,0.00,,,0.00,VWS V14.01,2013-06-21 10:56:00,
2013-06-21 05:01:00,43.8,39.9,30.08,WSW,257,1.0,8.0,86,0.00,,,0.00,VWS V14.01,2013-06-21 11:01:00,
2013-06-21 05:06:00,43.9,39.7,30.08,WSW,257,0.0,2.0,85,0.00,,,0.00,VWS V14.01,2013-06-21 11:06:00,
2013-06-21 05:11:00,43.7,40.1,30.09,WSW,257,2.0,3.0,87,0.00,,,0.00,VWS V14.01,2013-06-21 11:11:00,
2013-06-21 05:16:00,43.3,40.0,30.08,WSW,257,0.0,3.0,88,0.00,,,0.00,VWS V14.01,2013-06-21 11:16:00,
2013-06-21 05:20:00,43.1,40.1,30.08,WSW,256,4.0,5.0,89,0.00,,,0.00,VWS V14.01,2013-06-21 11:20:00,
2013-06-21 05:25:00,43.1,40.1,30.09,WSW,256,0.0,5.0,89,0.00,,,0.00,VWS V14.01,2013-06-21 11:25:00,
2013-06-21 05:30:00,43.1,40.1,30.09,WSW,256,0.0,5.0,89,0.00,,,0.00,VWS V14.01,2013-06-21 11:30:00,
2013-06-21 05:35:00,43.1,40.4,30.08,WSW,256,0.0,0.0,90,0.00,,,0.00,VWS V14.01,2013-06-21 11:35:00,
2013-06-21 05:40:00,43.0,40.3,30.09,WSW,256,0.0,1.0,90,0.00,,,0.00,VWS V14.01,2013-06-21 11:40:00,
2013-06-21 05:45:00,42.9,40.2,30.08,WSW,256,0.0,1.0,90,0.00,,,0.00,VWS V14.01,2013-06-21 11:45:00,
2013-06-21 05:50:00,42.9,40.2,30.09,WSW,256,0.0,1.0,90,0.00,,,0.00,VWS V14.01,2013-06-21 11:50:00,
2013-06-21 05:55:00,42.9,40.2,30.09,WSW,256,0.0,1.0,90,0.00,,,0.00,VWS V14.01,2013-06-21 11:55:00,
2013-06-21 06:00:00,43.0,40.3,30.09,WSW,256,0.0,1.0,90,0.00,,,0.00,VWS V14.01,2013-06-21 12:00:00,
2013-06-21 06:05:00,42.9,40.2,30.09,WSW,256,0.0,0.0,90,0.00,,,0.00,VWS V14.01,2013-06-21 12:05:00,
2013-06-21 06:10:00,42.9,40.2,30.09,WSW,256,0.0,3.0,90,0.00,,,0.00,VWS V14.01,2013-06-21 12:10:00,
2013-06-21 06:15:00,42.9,40.2,30.09,WSW,256,0.0,3.0,90,0.00,,,0.00,VWS V14.01,2013-06-21 12:15:00,
2013-06-21 06:20:00,43.0,40.3,30.09,WSW,256,0.0,3.0,90,0.00,,,0.00,VWS V14.01,2013-06-21 12:20:00,
2013-06-21 06:25:00,43.1,40.4,30.10,WSW,256,0.0,3.0,90,0.00,,,0.00,VWS V14.01,2013-06-21 12:25:00,
2013-06-21 06:30:00,43.2,40.5,30.10,WSW,256,0.0,3.0,90,0.00,,,0.00,VWS V14.01,2013-06-21 12:30:00,
2013-06-21 06:36:00,43.2,40.5,30.10,WSW,256,0.0,0.0,90,0.00,,,0.00,VWS V14.01,2013-06-21 12:36:00,
2013-06-21 06:41:00,43.2,40.5,30.10,WSW,256,0.0,0.0,90,0.00,,,0.00,VWS V14.01,2013-06-21 12:41:00,
2013-06-21 06:46:00,43.3,40.6,30.10,WSW,256,0.0,0.0,90,0.00,,,0.00,VWS V14.01,2013-06-21 12:46:00,
2013-06-21 06:51:00,43.3,40.6,30.10,WSW,256,0.0,0.0,90,0.00,,,0.00,VWS V14.01,2013-06-21 12:51:00,
2013-06-21 06:56:00,43.4,40.7,30.10,WSW,256,0.0,0.0,90,0.00,,,0.00,VWS V14.01,2013-06-21 12:56:00,
2013-06-21 07:01:00,43.6,40.9,30.10,WSW,256,0.0,0.0,90,0.00,,,0.00,VWS V14.01,2013-06-21 13:01:00,
2013-06-21 07:06:00,43.8,41.1,30.10,WSW,257,0.0,0.0,90,0.00,,,0.00,VWS V14.01,2013-06-21 13:06:00,
2013-06-21 07:11:00,43.9,41.2,30.10,WSW,257,0.0,2.0,90,0.00,,,0.00,VWS V14.01,2013-06-21 13:11:00,
2013-06-21 07:16:00,44.0,41.3,30.10,WSW,257,0.0,2.0,90,0.00,,,0.00,VWS V14.01,2013-06-21 13:16:00,
2013-06-21 07:21:00,44.2,41.5,30.10,WSW,257,0.0,2.0,90,0.00,,,0.00,VWS V14.01,2013-06-21 13:21:00,
2013-06-21 07:26:00,44.3,41.6,30.10,WSW,257,0.0,3.0,90,0.00,,,0.00,VWS V14.01,2013-06-21 13:26:00,
2013-06-21 07:31:00,44.3,41.6,30.10,WSW,257,0.0,3.0,90,0.00,,,0.00,VWS V14.01,2013-06-21 13:31:00,
2013-06-21 07:36:00,44.3,41.6,30.11,WSW,257,0.0,0.0,90,0.00,,,0.00,VWS V14.01,2013-06-21 13:36:00,
2013-06-21 07:41:00,44.4,41.7,30.11,WSW,257,0.0,0.0,90,0.00,,,0.00,VWS V14.01,2013-06-21 13:41:00,
2013-06-21 07:46:00,44.6,41.8,30.11,WSW,257,0.0,1.0,90,0.00,,,0.00,VWS V14.01,2013-06-21 13:46:00,
2013-06-21 07:51:00,44.7,42.0,30.11,WSW,257,0.0,1.0,90,0.00,,,0.00,VWS V14.01,2013-06-21 13:51:00,
2013-06-21 07:56:00,44.8,42.0,30.11,WSW,257,0.0,1.0,90,0.00,,,0.00,VWS V14.01,2013-06-21 13:56:00,
2013-06-21 08:01:00,44.8,42.0,30.11,WSW,257,0.0,1.0,90,0.00,,,0.00,VWS V14.01,2013-06-21 14:01:00,
2013-06-21 08:06:00,45.0,42.2,30.11,WSW,257,0.0,0.0,90,0.00,,,0.00,VWS V14.01,2013-06-21 14:06:00,
2013-06-21 08:12:00,45.0,42.2,30.11,WSW,257,0.0,0.0,90,0.00,,,0.00,VWS V14.01,2013-06-21 14:12:00,
2013-06-21 08:17:00,45.1,42.3,30.11,WSW,257,0.0,0.0,90,0.00,,,0.00,VWS V14.01,2013-06-21 14:17:00,
2013-06-21 08:22:00,45.5,42.7,30.11,WSW,257,0.0,0.0,90,0.00,,,0.00,VPLive 1.2.5.27,2013-06-21 14:22:00,
2013-06-21 08:27:00,45.7,42.7,30.12,WSW,257,0.0,0.0,89,0.00,,,0.00,VWS V14.01,2013-06-21 14:27:00,
2013-06-21 08:32:00,45.8,41.9,30.12,WSW,257,0.0,0.0,86,0.00,,,0.00,VWS V14.01,2013-06-21 14:32:00,
2013-06-21 08:37:00,45.9,42.0,30.12,WSW,257,0.0,2.0,86,0.00,,,0.00,VWS V14.01,2013-06-21 14:37:00,
2013-06-21 08:42:00,46.2,42.5,30.12,WSW,257,0.0,2.0,87,0.00,,,0.00,VWS V14.01,2013-06-21 14:42:00,
2013-06-21 08:47:00,46.3,42.3,30.12,WSW,257,1.0,2.0,86,0.00,,,0.00,VWS V14.01,2013-06-21 14:47:00,
2013-06-21 08:52:00,46.4,42.5,30.12,WSW,257,0.0,2.0,86,0.00,,,0.00,VWS V14.01,2013-06-21 14:52:00,
2013-06-21 08:57:00,46.5,42.2,30.13,WSW,257,0.0,2.0,85,0.00,,,0.00,VWS V14.01,2013-06-21 14:57:00,
2013-06-21 09:02:00,46.8,42.5,30.12,WSW,257,0.0,2.0,85,0.00,,,0.00,VWS V14.01,2013-06-21 15:02:00,
2013-06-21 09:07:00,47.2,42.6,30.12,WSW,257,0.0,1.0,84,0.00,,,0.00,VWS V14.01,2013-06-21 15:07:00,
2013-06-21 09:12:00,47.6,42.7,30.12,WSW,257,0.0,2.0,83,0.00,,,0.00,VWS V14.01,2013-06-21 15:12:00,
2013-06-21 09:17:00,47.9,42.7,30.12,WSW,256,0.0,3.0,82,0.00,,,0.00,VWS V14.01,2013-06-21 15:17:00,
2013-06-21 09:22:00,48.3,42.8,30.12,WSW,256,0.0,3.0,81,0.00,,,0.00,VWS V14.01,2013-06-21 15:22:00,
2013-06-21 09:27:00,48.8,42.9,30.12,WSW,256,0.0,3.0,80,0.00,,,0.00,VWS V14.01,2013-06-21 15:27:00,
2013-06-21 09:32:00,49.4,43.2,30.12,WSW,256,0.0,0.0,79,0.00,,,0.00,VWS V14.01,2013-06-21 15:32:00,
2013-06-21 09:37:00,50.3,43.7,30.12,WSW,256,0.0,2.0,78,0.00,,,0.00,VWS V14.01,2013-06-21 15:37:00,
2013-06-21 09:42:00,50.9,42.9,30.12,West,265,2.0,4.0,74,0.00,,,0.00,VWS V14.01,2013-06-21 15:42:00,
2013-06-21 09:47:00,51.0,41.9,30.12,WNW,290,3.0,4.0,71,0.00,,,0.00,VWS V14.01,2013-06-21 15:47:00,
2013-06-21 09:52:00,51.3,41.1,30.12,WNW,290,0.0,4.0,68,0.00,,,0.00,VWS V14.01,2013-06-21 15:52:00,
2013-06-21 09:57:00,51.8,42.0,30.11,West,263,0.0,6.0,69,0.00,,,0.00,VWS V14.01,2013-06-21 15:57:00,
2013-06-21 10:02:00,51.7,41.9,30.11,WSW,250,0.0,0.0,69,0.00,,,0.00,VWS V14.01,2013-06-21 16:02:00,
2013-06-21 10:07:00,51.5,42.0,30.12,WSW,242,2.0,6.0,70,0.00,,,0.00,VPLive 1.2.5.27,2013-06-21 16:07:00,
2013-06-21 10:12:00,51.5,42.4,30.12,WSW,242,3.0,6.0,71,0.00,,,0.00,VWS V14.01,2013-06-21 16:12:00,
2013-06-21 10:17:00,51.6,41.8,30.11,WSW,240,4.0,6.0,69,0.00,,,0.00,VWS V14.01,2013-06-21 16:17:00,
2013-06-21 10:22:00,51.7,42.2,30.11,WSW,240,4.0,6.0,70,0.00,,,0.00,VWS V14.01,2013-06-21 16:22:00,
2013-06-21 10:27:00,51.9,42.4,30.11,WSW,245,0.0,6.0,70,0.00,,,0.00,VWS V14.01,2013-06-21 16:27:00,
2013-06-21 10:32:00,52.1,42.6,30.11,WNW,303,4.0,5.0,70,0.00,,,0.00,VWS V14.01,2013-06-21 16:32:00,
2013-06-21 10:37:00,52.4,42.2,30.11,West,272,5.0,5.0,68,0.00,,,0.00,VWS V14.01,2013-06-21 16:37:00,
2013-06-21 10:42:00,52.9,43.0,30.11,West,278,4.0,6.0,69,0.00,,,0.00,VWS V14.01,2013-06-21 16:42:00,
2013-06-21 10:47:00,53.2,42.5,30.10,WNW,282,3.0,6.0,67,0.00,,,0.00,VWS V14.01,2013-06-21 16:47:00,
2013-06-21 10:52:00,53.6,43.3,30.10,SSW,211,5.0,8.0,68,0.00,,,0.00,VWS V14.01,2013-06-21 16:52:00,
2013-06-21 10:57:00,53.9,43.2,30.10,West,279,3.0,8.0,67,0.00,,,0.00,VWS V14.01,2013-06-21 16:57:00,
2013-06-21 11:02:00,54.4,43.7,30.10,WSW,246,4.0,6.0,67,0.00,,,0.00,VWS V14.01,2013-06-21 17:02:00,
2013-06-21 11:07:00,54.6,43.9,30.10,West,279,4.0,10.0,67,0.00,,,0.00,VWS V14.01,2013-06-21 17:07:00,
2013-06-21 11:13:00,54.7,42.8,30.10,WSW,256,3.0,10.0,64,0.00,,,0.00,VWS V14.01,2013-06-21 17:13:00,
2013-06-21 11:18:00,54.9,42.1,30.09,SW,215,4.0,10.0,62,0.00,,,0.00,VWS V14.01,2013-06-21 17:18:00,
2013-06-21 11:23:00,54.8,42.5,30.09,SSW,195,4.0,10.0,63,0.00,,,0.00,VWS V14.01,2013-06-21 17:23:00,
2013-06-21 11:28:00,54.7,43.6,30.09,SSW,192,0.0,10.0,66,0.00,,,0.00,VWS V14.01,2013-06-21 17:28:00,
2013-06-21 11:33:00,55.0,41.8,30.09,SSW,208,0.0,5.0,61,0.00,,,0.00,VWS V14.01,2013-06-21 17:33:00,
2013-06-21 11:38:00,55.2,42.4,30.09,WNW,292,5.0,8.0,62,0.00,,,0.00,VWS V14.01,2013-06-21 17:38:00,
2013-06-21 11:43:00,55.1,42.8,30.09,WNW,292,3.0,8.0,63,0.00,,,0.00,VWS V14.01,2013-06-21 17:43:00,
2013-06-21 11:46:00,55.1,42.3,30.09,WNW,292,0.0,8.0,62,0.00,,,0.00,VWS V14.01,2013-06-21 17:46:00,
2013-06-21 11:51:00,55.4,42.6,30.09,West,279,5.0,8.0,62,0.00,,,0.00,VWS V14.01,2013-06-21 17:51:00,
2013-06-21 11:56:00,55.3,42.5,30.09,WNW,294,4.0,8.0,62,0.00,,,0.00,VWS V14.01,2013-06-21 17:56:00,
2013-06-21 12:01:00,55.1,42.3,30.09,WNW,294,7.0,8.0,62,0.00,,,0.00,VWS V14.01,2013-06-21 18:01:00,
2013-06-21 12:07:00,54.6,41.0,30.09,WNW,285,3.0,7.0,60,0.00,,,0.00,VPLive 1.2.5.27,2013-06-21 18:07:00,
2013-06-21 12:12:00,54.5,41.8,30.09,West,281,5.0,7.0,62,0.00,,,0.00,VWS V14.01,2013-06-21 18:12:00,
2013-06-21 12:17:00,54.0,42.9,30.09,WNW,303,6.0,10.0,66,0.00,,,0.00,VWS V14.01,2013-06-21 18:17:00,
2013-06-21 12:23:00,53.9,43.6,30.09,North,355,3.0,10.0,68,0.00,,,0.00,VWS V14.01,2013-06-21 18:23:00,
2013-06-21 12:24:00,54.0,43.3,30.08,North,355,0.0,10.0,67,0.00,,,0.00,VWS V14.01,2013-06-21 18:24:00,
2013-06-21 12:29:00,54.1,42.6,30.08,WNW,300,4.0,10.0,65,0.00,,,0.00,VWS V14.01,2013-06-21 18:29:00,
2013-06-21 12:34:00,55.1,44.7,30.08,WNW,287,1.0,5.0,68,0.00,,,0.00,VWS V14.01,2013-06-21 18:34:00,
2013-06-21 12:39:00,55.3,42.5,30.09,WNW,287,3.0,5.0,62,0.00,,,0.00,VWS V14.01,2013-06-21 18:39:00,
2013-06-21 12:44:00,55.3,42.1,30.08,WNW,287,0.0,4.0,61,0.00,,,0.00,VPLive 1.2.5.27,2013-06-21 18:44:00,
2013-06-21 12:45:00,55.3,42.1,30.08,WNW,287,0.0,6.0,61,0.00,,,0.00,VWS V14.01,2013-06-21 18:45:00,
2013-06-21 12:46:00,55.3,42.9,30.08,WNW,287,0.0,6.0,63,0.00,,,0.00,VWS V14.01,2013-06-21 18:46:00,
2013-06-21 12:51:00,55.7,42.5,30.08,South,185,0.0,8.0,61,0.00,,,0.00,VWS V14.01,2013-06-21 18:51:00,
2013-06-21 12:56:00,55.7,42.5,30.08,SW,235,6.0,8.0,61,0.00,,,0.00,VWS V14.01,2013-06-21 18:56:00,
2013-06-21 13:01:00,55.6,42.0,30.08,WSW,246,4.0,9.0,60,0.00,,,0.00,VWS V14.01,2013-06-21 19:01:00,
2013-06-21 13:06:00,55.7,43.3,30.08,SW,232,7.0,7.0,63,0.00,,,0.00,VWS V14.01,2013-06-21 19:06:00,
2013-06-21 13:11:00,55.5,41.9,30.08,WSW,238,8.0,10.0,60,0.00,,,0.00,VWS V14.01,2013-06-21 19:11:00,
2013-06-21 13:16:00,55.9,42.2,30.08,West,281,7.0,10.0,60,0.00,,,0.00,VWS V14.01,2013-06-21 19:16:00,
2013-06-21 13:20:00,56.0,41.9,30.08,WSW,252,1.0,10.0,59,0.00,,,0.00,VWS V14.01,2013-06-21 19:20:00,
2013-06-21 13:25:00,56.3,43.5,30.09,NNW,344,5.0,10.0,62,0.00,,,0.00,VWS V14.01,2013-06-21 19:25:00,
2013-06-21 13:30:00,55.6,44.8,30.09,North,355,3.0,10.0,67,0.00,,,0.00,VWS V14.01,2013-06-21 19:30:00,
2013-06-21 13:35:00,55.1,44.7,30.09,WNW,296,3.0,6.0,68,0.00,,,0.00,VWS V14.01,2013-06-21 19:35:00,
2013-06-21 13:40:00,54.6,45.0,30.09,WNW,296,2.0,6.0,70,0.00,,,0.00,VWS V14.01,2013-06-21 19:40:00,
2013-06-21 13:42:00,54.6,46.1,30.09,WNW,295,1.0,6.0,73,0.00,,,0.00,VWS V14.01,2013-06-21 19:42:00,
2013-06-21 13:48:00,54.9,44.9,30.08,SE,132,0.0,6.0,69,0.00,,,0.00,VPLive 1.2.5.27,2013-06-21 19:48:00,
2013-06-21 13:53:00,55.5,47.4,30.08,NE,38,5.0,8.0,74,0.00,,,0.00,VWS V14.01,2013-06-21 19:53:00,
2013-06-21 13:58:00,55.1,44.0,30.09,ENE,59,0.0,8.0,66,0.00,,,0.00,VWS V14.01,2013-06-21 19:58:00,
2013-06-21 14:03:00,55.1,44.3,30.09,ENE,59,0.0,0.0,67,0.00,,,0.00,VWS V14.01,2013-06-21 20:03:00,
2013-06-21 14:04:00,55.1,44.7,30.09,ENE,59,0.0,0.0,68,0.00,,,0.00,VWS V14.01,2013-06-21 20:04:00,
2013-06-21 14:08:00,54.9,46.1,30.10,NNE,28,4.0,6.0,72,0.00,,,0.00,VWS V14.01,2013-06-21 20:08:00,
2013-06-21 14:11:00,54.0,46.6,30.09,North,9,1.0,6.0,76,0.01,,,0.01,VWS V14.01,2013-06-21 20:11:00,
2013-06-21 14:16:00,53.0,47.3,30.10,NNE,22,0.0,6.0,81,0.04,,,0.04,VWS V14.01,2013-06-21 20:16:00,
2013-06-21 14:21:00,52.9,48.2,30.09,SE,142,7.0,8.0,84,0.06,,,0.06,VWS V14.01,2013-06-21 20:21:00,
2013-06-21 14:26:00,52.7,48.6,30.08,ESE,123,1.0,11.0,86,0.08,,,0.08,VWS V14.01,2013-06-21 20:26:00,
2013-06-21 14:31:00,53.2,49.7,30.08,East,97,5.0,11.0,88,0.08,,,0.08,VWS V14.01,2013-06-21 20:31:00,
2013-06-21 14:36:00,54.1,50.6,30.08,ESE,118,0.0,9.0,88,0.08,,,0.08,VWS V14.01,2013-06-21 20:36:00,
2013-06-21 14:41:00,54.6,50.5,30.08,ESE,103,0.0,9.0,86,0.08,,,0.08,VWS V14.01,2013-06-21 20:41:00,
2013-06-21 14:46:00,55.7,51.3,30.08,ESE,117,2.0,7.0,85,0.08,,,0.08,VPLive 1.2.5.27,2013-06-21 20:46:00,
2013-06-21 14:51:00,56.2,49.8,30.08,ENE,75,2.0,9.0,79,0.08,,,0.08,VWS V14.01,2013-06-21 20:51:00,
2013-06-21 14:56:00,56.6,48.8,30.08,ESE,121,6.0,9.0,75,0.08,,,0.08,VWS V14.01,2013-06-21 20:56:00,
2013-06-21 15:01:00,56.7,49.9,30.08,ENE,78,6.0,9.0,78,0.08,,,0.08,VWS V14.01,2013-06-21 21:01:00,
2013-06-21 15:04:00,56.3,49.2,30.08,ESE,107,5.0,8.0,77,0.08,,,0.08,VWS V14.01,2013-06-21 21:04:00,
2013-06-21 15:09:00,55.3,47.9,30.08,ESE,108,5.0,8.0,76,0.08,,,0.08,VWS V14.01,2013-06-21 21:09:00,
2013-06-21 15:14:00,55.0,47.9,30.08,ESE,107,0.0,8.0,77,0.08,,,0.08,VWS V14.01,2013-06-21 21:14:00,
2013-06-21 15:19:00,55.1,48.0,30.08,ESE,107,0.0,8.0,77,0.08,,,0.08,VWS V14.01,2013-06-21 21:19:00,
2013-06-21 15:24:00,55.0,49.3,30.08,ESE,107,0.0,8.0,81,0.08,,,0.08,VWS V14.01,2013-06-21 21:24:00,
2013-06-21 15:29:00,54.5,47.1,30.08,ESE,107,5.0,8.0,76,0.08,,,0.08,VWS V14.01,2013-06-21 21:29:00,
2013-06-21 15:34:00,54.4,48.4,30.08,East,101,2.0,4.0,80,0.00,,,0.08,VWS V14.01,2013-06-21 21:34:00,
2013-06-21 15:39:00,54.9,50.2,30.08,ESE,123,1.0,6.0,84,0.00,,,0.08,VWS V14.01,2013-06-21 21:39:00,
2013-06-21 15:44:00,55.9,50.8,30.08,SE,124,2.0,6.0,83,0.00,,,0.08,VWS V14.01,2013-06-21 21:44:00,
2013-06-21 15:49:00,57.1,47.8,30.08,SE,124,0.0,6.0,71,0.00,,,0.08,VWS V14.01,2013-06-21 21:49:00,
2013-06-21 15:54:00,57.4,46.9,30.07,ENE,71,1.0,6.0,68,0.00,,,0.08,VWS V14.01,2013-06-21 21:54:00,
2013-06-21 15:59:00,57.4,48.8,30.07,East,92,6.0,6.0,73,0.00,,,0.08,VWS V14.01,2013-06-21 21:59:00,
2013-06-21 16:04:00,57.7,46.8,30.07,East,99,0.0,5.0,67,0.00,,,0.08,VWS V14.01,2013-06-21 22:04:00,
2013-06-21 16:09:00,57.7,46.4,30.07,East,98,0.0,6.0,66,0.00,,,0.08,VWS V14.01,2013-06-21 22:09:00,
2013-06-21 16:14:00,57.8,47.3,30.07,East,98,0.0,1.0,68,0.00,,,0.08,VPLive 1.2.5.27,2013-06-21 22:14:00,
2013-06-21 16:19:00,57.8,46.9,30.07,East,99,0.0,7.0,67,0.00,,,0.08,VWS V14.01,2013-06-21 22:19:00,
2013-06-21 16:24:00,58.1,48.0,30.07,East,99,0.0,7.0,69,0.00,,,0.08,VWS V14.01,2013-06-21 22:24:00,
2013-06-21 16:29:00,58.6,48.1,30.07,East,98,0.0,7.0,68,0.00,,,0.08,VWS V14.01,2013-06-21 22:29:00,
2013-06-21 16:34:00,58.9,47.2,30.07,South,177,1.0,8.0,65,0.00,,,0.08,VWS V14.01,2013-06-21 22:34:00,
2013-06-21 16:39:00,58.4,47.5,30.07,South,176,0.0,5.0,67,0.00,,,0.08,VPLive 1.2.5.27,2013-06-21 22:39:00,
2013-06-21 16:44:00,58.4,46.3,30.07,South,176,0.0,8.0,64,0.00,,,0.08,VWS V14.01,2013-06-21 22:44:00,
2013-06-21 16:49:00,58.7,47.8,30.07,South,176,0.0,8.0,67,0.00,,,0.08,VWS V14.01,2013-06-21 22:49:00,
2013-06-21 16:54:00,58.3,46.6,30.07,East,101,0.0,8.0,65,0.00,,,0.08,VWS V14.01,2013-06-21 22:54:00,
2013-06-21 16:59:00,57.7,46.8,30.07,ENE,76,3.0,8.0,67,0.00,,,0.08,VWS V14.01,2013-06-21 22:59:00,
2013-06-21 17:04:00,57.6,47.9,30.08,ENE,76,3.0,4.0,70,0.00,,,0.08,VWS V14.01,2013-06-21 23:04:00,
2013-06-21 17:09:00,57.0,48.1,30.07,NE,54,6.0,6.0,72,0.00,,,0.08,VWS V14.01,2013-06-21 23:09:00,
2013-06-21 17:14:00,55.9,48.5,30.07,ENE,71,3.0,7.0,76,0.02,,,0.10,VWS V14.01,2013-06-21 23:14:00,
2013-06-21 17:19:00,55.3,48.6,30.07,East,96,1.0,7.0,78,0.02,,,0.10,VWS V14.01,2013-06-21 23:19:00,
2013-06-21 17:24:00,55.7,50.0,30.07,East,96,0.0,7.0,81,0.02,,,0.10,VWS V14.01,2013-06-21 23:24:00,
2013-06-21 17:29:00,56.3,48.1,30.07,East,96,0.0,7.0,74,0.02,,,0.10,VWS V14.01,2013-06-21 23:29:00,
2013-06-21 17:34:00,56.9,47.6,30.07,East,96,0.0,1.0,71,0.02,,,0.10,VWS V14.01,2013-06-21 23:34:00,
2013-06-21 17:39:00,57.7,47.6,30.06,East,96,0.0,1.0,69,0.02,,,0.10,VWS V14.01,2013-06-21 23:39:00,
2013-06-21 17:44:00,58.4,47.1,30.07,East,96,0.0,1.0,66,0.02,,,0.10,VWS V14.01,2013-06-21 23:44:00,
2013-06-21 17:49:00,58.7,48.2,30.07,East,96,2.0,4.0,68,0.02,,,0.10,VPLive 1.2.5.27,2013-06-21 23:49:00,
2013-06-21 17:54:00,59.0,48.1,30.06,East,91,1.0,5.0,67,0.02,,,0.10,VWS V14.01,2013-06-21 23:54:00,
2013-06-21 17:59:00,58.7,47.4,30.07,East,91,0.0,5.0,66,0.02,,,0.10,VWS V14.01,2013-06-21 23:59:00,
2013-06-21 18:04:00,58.8,47.5,30.07,ENE,57,4.0,7.0,66,0.02,,,0.10,VWS V14.01,2013-06-22 00:04:00,
2013-06-21 18:09:00,58.6,46.9,30.07,ENE,57,2.0,7.0,65,0.02,,,0.10,VWS V14.01,2013-06-22 00:09:00,
2013-06-21 18:14:00,58.8,48.3,30.06,ENE,70,4.0,7.0,68,0.02,,,0.10,VWS V14.01,2013-06-22 00:14:00,
2013-06-21 18:19:00,58.7,49.0,30.06,ENE,67,3.0,10.0,70,0.02,,,0.10,VWS V14.01,2013-06-22 00:19:00,
2013-06-21 18:24:00,59.2,48.3,30.06,East,98,1.0,10.0,67,0.02,,,0.10,VWS V14.01,2013-06-22 00:24:00,
2013-06-21 18:29:00,59.6,48.6,30.06,NE,55,5.0,10.0,67,0.02,,,0.10,VWS V14.01,2013-06-22 00:29:00,
2013-06-21 18:34:00,59.5,48.2,30.06,East,79,6.0,9.0,66,0.00,,,0.10,VWS V14.01,2013-06-22 00:34:00,
2013-06-21 18:39:00,59.0,47.3,30.06,ENE,76,6.0,11.0,65,0.00,,,0.10,VWS V14.01,2013-06-22 00:39:00,
2013-06-21 18:44:00,57.9,47.4,30.06,ENE,63,5.0,12.0,68,0.00,,,0.10,VWS V14.01,2013-06-22 00:44:00,
2013-06-21 18:49:00,56.8,47.5,30.06,East,79,8.0,13.0,71,0.00,,,0.10,VWS V14.01,2013-06-22 00:49:00,
2013-06-21 18:54:00,56.4,47.1,30.06,ENE,71,8.0,13.0,71,0.00,,,0.10,VWS V14.01,2013-06-22 00:54:00,
2013-06-21 18:59:00,56.5,48.0,30.06,ENE,63,1.0,13.0,73,0.00,,,0.10,VWS V14.01,2013-06-22 00:59:00,
2013-06-21 19:04:00,56.3,47.4,30.06,ENE,67,4.0,10.0,72,0.00,,,0.10,VWS V14.01,2013-06-22 01:04:00,
2013-06-21 19:09:00,55.9,46.7,30.07,ENE,75,4.0,10.0,71,0.00,,,0.10,VWS V14.01,2013-06-22 01:09:00,
2013-06-21 19:14:00,55.6,46.0,30.07,NE,46,4.0,12.0,70,0.00,,,0.10,VWS V14.01,2013-06-22 01:14:00,
2013-06-21 19:19:00,55.3,45.7,30.07,ENE,61,3.0,12.0,70,0.00,,,0.10,VWS V14.01,2013-06-22 01:19:00,
2013-06-21 19:24:00,55.0,46.5,30.07,NE,38,4.0,12.0,73,0.00,,,0.10,VWS V14.01,2013-06-22 01:24:00,
2013-06-21 19:29:00,54.5,46.0,30.07,NE,43,5.0,12.0,73,0.00,,,0.10,VWS V14.01,2013-06-22 01:29:00,
2013-06-21 19:34:00,54.2,45.8,30.07,ENE,63,4.0,8.0,73,0.00,,,0.10,VWS V14.01,2013-06-22 01:34:00,
2013-06-21 19:39:00,54.5,46.8,30.07,ENE,69,2.0,8.0,75,0.00,,,0.10,VWS V14.01,2013-06-22 01:39:00,
2013-06-21 19:44:00,54.6,45.8,30.07,East,94,5.0,8.0,72,0.00,,,0.10,VWS V14.01,2013-06-22 01:44:00,
2013-06-21 19:49:00,54.7,46.9,30.07,East,94,4.0,8.0,75,0.00,,,0.10,VWS V14.01,2013-06-22 01:49:00,
2013-06-21 19:54:00,54.7,46.6,30.07,East,94,0.0,8.0,74,0.00,,,0.10,VWS V14.01,2013-06-22 01:54:00,
2013-06-21 19:59:00,54.8,46.7,30.06,East,94,0.0,1.0,74,0.00,,,0.10,VPLive 1.2.5.27,2013-06-22 01:59:00,
2013-06-21 20:04:00,54.9,46.1,30.06,East,94,0.0,1.0,72,0.00,,,0.10,VWS V14.01,2013-06-22 02:04:00,
2013-06-21 20:09:00,55.0,47.2,30.06,East,94,0.0,1.0,75,0.00,,,0.10,VWS V14.01,2013-06-22 02:09:00,
2013-06-21 20:14:00,55.0,47.6,30.06,East,94,0.0,1.0,76,0.00,,,0.10,VWS V14.01,2013-06-22 02:14:00,
2013-06-21 20:19:00,54.7,46.9,30.07,East,94,4.0,4.0,75,0.00,,,0.10,VWS V14.01,2013-06-22 02:19:00,
2013-06-21 20:24:00,54.2,46.8,30.07,East,94,2.0,4.0,76,0.00,,,0.10,VWS V14.01,2013-06-22 02:24:00,
2013-06-21 20:29:00,54.0,47.3,30.07,East,94,0.0,4.0,78,0.00,,,0.10,VWS V14.01,2013-06-22 02:29:00,
2013-06-21 20:34:00,53.9,47.2,30.07,East,94,0.0,0.0,78,0.00,,,0.10,VWS V14.01,2013-06-22 02:34:00,
2013-06-21 20:39:00,53.6,47.3,30.06,East,94,2.0,4.0,79,0.00,,,0.10,VWS V14.01,2013-06-22 02:39:00,
2013-06-21 20:44:00,53.1,47.4,30.06,East,94,0.0,4.0,81,0.00,,,0.10,VWS V14.01,2013-06-22 02:44:00,
2013-06-21 20:49:00,52.6,46.9,30.07,East,94,0.0,4.0,81,0.00,,,0.10,VWS V14.01,2013-06-22 02:49:00,
2013-06-21 20:54:00,52.4,46.8,30.07,East,94,0.0,4.0,81,0.00,,,0.10,VWS V14.01,2013-06-22 02:54:00,
2013-06-21 20:59:00,52.1,46.8,30.07,East,94,2.0,5.0,82,0.00,,,0.10,VWS V14.01,2013-06-22 02:59:00,
2013-06-21 21:04:00,51.7,46.1,30.07,East,100,4.0,5.0,81,0.00,,,0.10,VWS V14.01,2013-06-22 03:04:00,
2013-06-21 21:09:00,51.5,46.2,30.06,SSW,207,6.0,7.0,82,0.00,,,0.10,VWS V14.01,2013-06-22 03:09:00,
2013-06-21 21:14:00,51.7,45.7,30.06,SSW,200,4.0,7.0,80,0.00,,,0.10,VWS V14.01,2013-06-22 03:14:00,
2013-06-21 21:19:00,52.0,46.0,30.06,SSW,200,4.0,7.0,80,0.00,,,0.10,VWS V14.01,2013-06-22 03:19:00,
2013-06-21 21:24:00,51.8,45.5,30.06,SSW,200,3.0,7.0,79,0.00,,,0.10,VWS V14.01,2013-06-22 03:24:00,
2013-06-21 21:29:00,51.5,45.2,30.06,SSW,200,1.0,7.0,79,0.00,,,0.10,VWS V14.01,2013-06-22 03:29:00,
2013-06-21 21:34:00,51.2,45.2,30.07,SSW,200,0.0,0.0,80,0.00,,,0.10,VWS V14.01,2013-06-22 03:34:00,
2013-06-21 21:39:00,50.6,45.0,30.07,SSW,200,0.0,0.0,81,0.00,,,0.10,VWS V14.01,2013-06-22 03:39:00,
2013-06-21 21:44:00,50.3,45.0,30.07,SSW,200,0.0,0.0,82,0.00,,,0.10,VWS V14.01,2013-06-22 03:44:00,
2013-06-21 21:49:00,49.8,44.5,30.07,SSW,200,0.0,1.0,82,0.00,,,0.10,VWS V14.01,2013-06-22 03:49:00,
2013-06-21 21:54:00,49.5,44.2,30.08,SSW,200,0.0,2.0,82,0.00,,,0.10,VWS V14.01,2013-06-22 03:54:00,
2013-06-21 21:59:00,49.1,44.2,30.07,SSW,200,0.0,2.0,83,0.00,,,0.10,VWS V14.01,2013-06-22 03:59:00,
2013-06-21 22:01:00,49.0,44.1,30.08,SSW,200,0.0,2.0,83,0.00,,,0.10,VWS V14.01,2013-06-22 04:01:00,
2013-06-21 22:06:00,48.9,43.7,30.08,SSW,200,0.0,0.0,82,0.00,,,0.10,VWS V14.01,2013-06-22 04:06:00,
2013-06-21 22:11:00,49.0,43.8,30.08,SSW,200,0.0,0.0,82,0.00,,,0.10,VWS V14.01,2013-06-22 04:11:00,
2013-06-21 22:16:00,49.1,43.8,30.08,SSW,200,3.0,3.0,82,0.00,,,0.10,VWS V14.01,2013-06-22 04:16:00,
2013-06-21 22:21:00,48.8,44.2,30.08,SE,129,4.0,5.0,84,0.00,,,0.10,VWS V14.01,2013-06-22 04:21:00,
2013-06-21 22:26:00,48.4,44.1,30.08,SE,129,0.0,5.0,85,0.00,,,0.10,VWS V14.01,2013-06-22 04:26:00,
2013-06-21 22:31:00,48.0,43.7,30.08,SE,129,0.0,5.0,85,0.00,,,0.10,VWS V14.01,2013-06-22 04:31:00,
2013-06-21 22:36:00,47.8,43.5,30.09,SE,129,0.0,4.0,85,0.00,,,0.10,VWS V14.01,2013-06-22 04:36:00,
2013-06-21 22:41:00,47.7,43.7,30.09,SE,129,0.0,4.0,86,0.00,,,0.10,VWS V14.01,2013-06-22 04:41:00,
2013-06-21 22:46:00,47.8,43.8,30.08,SE,129,0.0,4.0,86,0.00,,,0.10,VWS V14.01,2013-06-22 04:46:00,
2013-06-21 22:51:00,48.0,44.0,30.09,SE,129,0.0,4.0,86,0.00,,,0.10,VWS V14.01,2013-06-22 04:51:00,
2013-06-21 22:56:00,47.9,43.6,30.08,SE,129,0.0,4.0,85,0.00,,,0.10,VWS V14.01,2013-06-22 04:56:00,
2013-06-21 23:01:00,47.7,43.7,30.08,SE,130,0.0,5.0,86,0.00,,,0.10,VWS V14.01,2013-06-22 05:01:00,
2013-06-21 23:06:00,47.7,43.7,30.08,SE,130,0.0,4.0,86,0.00,,,0.10,VWS V14.01,2013-06-22 05:06:00,
2013-06-21 23:11:00,47.7,43.7,30.08,SE,130,0.0,4.0,86,0.00,,,0.10,VWS V14.01,2013-06-22 05:11:00,
2013-06-21 23:16:00,47.3,43.3,30.08,SE,130,0.0,4.0,86,0.00,,,0.10,VWS V14.01,2013-06-22 05:16:00,
2013-06-21 23:21:00,47.0,43.3,30.08,SE,130,0.0,4.0,87,0.00,,,0.10,VWS V14.01,2013-06-22 05:21:00,
2013-06-21 23:26:00,47.0,43.3,30.08,SE,130,0.0,4.0,87,0.00,,,0.10,VWS V14.01,2013-06-22 05:26:00,
2013-06-21 23:31:00,46.9,43.2,30.08,SE,130,0.0,4.0,87,0.00,,,0.10,VWS V14.01,2013-06-22 05:31:00,
2013-06-21 23:36:00,46.5,43.1,30.08,SE,130,0.0,1.0,88,0.00,,,0.10,VWS V14.01,2013-06-22 05:36:00,
2013-06-21 23:41:00,46.3,43.0,30.08,SE,130,2.0,5.0,88,0.00,,,0.10,VWS V14.01,2013-06-22 05:41:00,
2013-06-21 23:46:00,46.4,43.3,30.09,SE,130,0.0,5.0,89,0.00,,,0.10,VWS V14.01,2013-06-22 05:46:00,
2013-06-21 23:51:00,46.5,43.4,30.09,SE,130,0.0,5.0,89,0.00,,,0.10,VWS V14.01,2013-06-22 05:51:00,
2013-06-21 23:56:00,46.4,43.3,30.08,SE,130,0.0,5.0,89,0.00,,,0.10,VWS V14.01,2013-06-22 05:56:00,